createdAt,value
2023-01-08T00:00:27.575Z,100018.27
2023-01-08T00:03:15.970Z,100011.89
2023-01-08T00:05:44.765Z,100006.77
2023-01-08T00:08:13.125Z,100011.73
2023-01-08T00:10:41.649Z,100006.34
2023-01-08T00:13:09.977Z,100008.77
2023-01-08T00:15:38.270Z,100005.77
2023-01-08T00:18:07.026Z,100004.31
2023-01-08T00:20:35.472Z,99999.97
2023-01-08T00:23:03.787Z,99986.86
2023-01-08T00:25:32.561Z,99983.06
2023-01-08T00:28:00.879Z,99979.06
2023-01-08T00:30:29.901Z,99981.75
2023-01-08T00:32:58.264Z,99982.92
2023-01-08T00:35:26.689Z,99986.21
2023-01-08T00:37:55.112Z,99977.79
2023-01-08T00:40:23.655Z,99974.65
2023-01-08T00:42:52.006Z,99972.41
2023-01-08T00:45:20.373Z,99969.95
2023-01-08T00:47:48.627Z,99972.17
2023-01-08T00:50:17.084Z,99965.45
2023-01-08T00:52:45.477Z,99968.58
2023-01-08T00:55:13.864Z,99959.52
2023-01-08T00:57:42.388Z,99960.73
2023-01-08T01:00:15.580Z,99961.42
2023-01-08T01:02:45.722Z,99965.39
2023-01-08T01:05:15.532Z,99969.95
2023-01-08T01:07:44.939Z,99972.88
2023-01-08T01:10:16.402Z,99970.36
2023-01-08T01:12:45.161Z,99975.34
2023-01-08T01:15:17.027Z,99978.09
2023-01-08T01:17:46.411Z,99976.07
2023-01-08T01:20:16.508Z,99975.90
2023-01-08T01:22:44.999Z,99965.70
2023-01-08T01:25:13.391Z,99963.48
2023-01-08T01:27:42.203Z,99965.39
2023-01-08T01:30:11.169Z,99958.65
2023-01-08T01:32:39.454Z,99959.94
2023-01-08T01:35:08.345Z,99960.17
2023-01-08T01:37:36.877Z,99960.71
2023-01-08T01:40:06.342Z,99952.85
2023-01-08T01:42:40.637Z,99945.85
2023-01-08T01:45:27.861Z,99938.83
2023-01-08T01:48:11.265Z,99933.74
2023-01-08T01:50:49.615Z,99936.36
2023-01-08T01:53:29.747Z,99938.23
2023-01-08T01:55:59.458Z,99941.66
2023-01-08T01:58:30.952Z,99947.29
2023-01-08T02:01:05.885Z,99947.77
2023-01-08T02:03:38.429Z,99938.05
2023-01-08T02:06:31.831Z,99936.64
2023-01-08T02:09:17.625Z,99936.91
2023-01-08T02:12:50.048Z,99934.69
2023-01-08T02:15:31.641Z,99933.59
2023-01-08T02:18:15.102Z,99930.14
2023-01-08T02:20:54.509Z,99934.97
2023-01-08T02:24:02.248Z,99926.02
2023-01-08T02:26:33.995Z,99923.55
2023-01-08T02:29:20.535Z,99925.24
2023-01-08T02:31:49.552Z,99925.06
2023-01-08T02:34:17.980Z,99923.61
2023-01-08T02:36:57.156Z,99922.52
2023-01-08T02:39:45.812Z,99909.95
2023-01-08T02:42:31.317Z,99904.72
2023-01-08T02:45:09.088Z,99908.27
2023-01-08T02:48:02.577Z,99901.83
2023-01-08T02:50:44.693Z,99907.29
2023-01-08T02:53:25.180Z,99910.14
2023-01-08T02:56:00.336Z,99900.73
2023-01-08T02:58:33.376Z,99883.20
2023-01-08T03:01:10.151Z,99887.70
2023-01-08T03:03:43.743Z,99896.16
2023-01-08T03:06:17.710Z,99912.98
2023-01-08T03:08:50.378Z,99913.55
2023-01-08T03:11:22.833Z,99904.66
2023-01-08T03:14:00.313Z,99911.36
2023-01-08T03:16:45.372Z,99912.24
2023-01-08T03:19:28.631Z,99914.91
2023-01-08T03:21:58.462Z,99912.58
2023-01-08T03:24:34.608Z,99910.98
2023-01-08T03:27:05.282Z,99907.98
2023-01-08T03:29:35.493Z,99904.02
2023-01-08T03:32:09.128Z,99904.52
2023-01-08T03:34:42.136Z,99905.61
2023-01-08T03:37:15.028Z,99904.77
2023-01-08T03:40:01.162Z,99904.59
2023-01-08T03:42:31.868Z,99905.46
2023-01-08T03:45:01.172Z,99900.13
2023-01-08T03:47:31.942Z,99899.83
2023-01-08T03:50:06.047Z,99895.41
2023-01-08T03:52:34.367Z,99881.86
2023-01-08T03:55:03.568Z,99884.18
2023-01-08T03:57:32.071Z,99879.48
2023-01-08T04:00:00.610Z,99869.73
2023-01-08T04:02:29.064Z,99860.88
2023-01-08T04:04:57.459Z,99861.83
2023-01-08T04:07:25.793Z,99859.81
2023-01-08T04:09:54.088Z,99849.54
2023-01-08T04:12:24.368Z,99849.54
2023-01-08T04:14:52.758Z,99847.45
2023-01-08T04:17:21.117Z,99833.16
2023-01-08T04:19:49.505Z,99834.15
2023-01-08T04:22:17.776Z,99840.04
2023-01-08T04:24:46.105Z,99842.95
2023-01-08T04:27:14.463Z,99835.30
2023-01-08T04:29:42.883Z,99845.05
2023-01-08T04:32:11.217Z,99855.67
2023-01-08T04:34:39.625Z,99855.92
2023-01-08T04:37:07.961Z,99855.16
2023-01-08T04:39:36.423Z,99851.66
2023-01-08T04:42:04.960Z,99856.47
2023-01-08T04:44:33.284Z,99853.86
2023-01-08T04:47:01.643Z,99855.68
2023-01-08T04:49:29.978Z,99854.05
2023-01-08T04:51:58.347Z,99848.80
2023-01-08T04:54:26.811Z,99842.79
2023-01-08T04:56:55.128Z,99832.23
2023-01-08T04:59:23.476Z,99827.20
2023-01-08T05:01:52.074Z,99824.20
2023-01-08T05:04:20.478Z,99816.77
2023-01-08T05:06:48.782Z,99820.34
2023-01-08T05:09:17.235Z,99812.66
2023-01-08T05:11:45.556Z,99807.18
2023-01-08T05:14:13.955Z,99809.96
2023-01-08T05:16:44.631Z,99806.20
2023-01-08T05:19:13.754Z,99796.45
2023-01-08T05:21:42.141Z,99797.33
2023-01-08T05:24:10.614Z,99796.62
2023-01-08T05:26:39.063Z,99796.77
2023-01-08T05:29:07.376Z,99797.27
2023-01-08T05:31:35.879Z,99793.30
2023-01-08T05:34:04.200Z,99795.18
2023-01-08T05:36:32.565Z,99788.55
2023-01-08T05:39:00.929Z,99778.73
2023-01-08T05:41:29.272Z,99772.71
2023-01-08T05:43:57.691Z,99781.02
2023-01-08T05:46:26.124Z,99778.25
2023-01-08T05:48:54.454Z,99776.20
2023-01-08T05:51:22.782Z,99775.40
2023-01-08T05:53:51.106Z,99768.74
2023-01-08T05:56:19.443Z,99768.59
2023-01-08T05:58:47.754Z,99775.84
2023-01-08T06:01:16.630Z,99777.67
2023-01-08T06:03:45.099Z,99772.19
2023-01-08T06:06:13.616Z,99775.70
2023-01-08T06:08:41.989Z,99778.70
2023-01-08T06:11:12.130Z,99776.07
2023-01-08T06:13:43.829Z,99772.70
2023-01-08T06:16:13.078Z,99766.41
2023-01-08T06:18:41.429Z,99769.59
2023-01-08T06:21:09.929Z,99764.29
2023-01-08T06:23:38.257Z,99767.04
2023-01-08T06:26:07.120Z,99767.73
2023-01-08T06:28:35.995Z,99760.45
2023-01-08T06:31:04.795Z,99756.09
2023-01-08T06:33:33.202Z,99757.95
2023-01-08T06:36:04.456Z,99753.80
2023-01-08T06:38:35.068Z,99753.93
2023-01-08T06:41:10.328Z,99757.52
2023-01-08T06:43:39.109Z,99755.71
2023-01-08T06:46:09.392Z,99749.81
2023-01-08T06:48:37.750Z,99745.50
2023-01-08T06:51:06.686Z,99747.05
2023-01-08T06:53:35.101Z,99742.95
2023-01-08T06:56:04.466Z,99742.44
2023-01-08T06:58:33.475Z,99742.40
2023-01-08T07:01:01.806Z,99743.60
2023-01-08T07:03:30.287Z,99745.98
2023-01-08T07:05:58.767Z,99743.82
2023-01-08T07:08:27.109Z,99747.52
2023-01-08T07:10:55.426Z,99753.09
2023-01-08T07:13:24.376Z,99752.66
2023-01-08T07:15:52.850Z,99755.66
2023-01-08T07:18:21.191Z,99760.85
2023-01-08T07:20:49.825Z,99761.05
2023-01-08T07:23:18.201Z,99765.73
2023-01-08T07:25:47.480Z,99762.94
2023-01-08T07:28:16.192Z,99752.56
2023-01-08T07:30:44.857Z,99749.66
2023-01-08T07:33:13.242Z,99747.07
2023-01-08T07:35:41.605Z,99749.27
2023-01-08T07:38:10.010Z,99753.35
2023-01-08T07:40:39.476Z,99749.63
2023-01-08T07:43:09.975Z,99747.27
2023-01-08T07:45:39.335Z,99748.38
2023-01-08T07:48:10.519Z,99744.63
2023-01-08T07:50:41.427Z,99732.11
2023-01-08T07:53:12.237Z,99726.55
2023-01-08T07:55:40.579Z,99723.13
2023-01-08T07:58:11.655Z,99725.66
2023-01-08T08:00:40.720Z,99720.41
2023-01-08T08:03:13.551Z,99716.39
2023-01-08T08:05:41.892Z,99713.44
2023-01-08T08:08:12.144Z,99711.48
2023-01-08T08:10:42.358Z,99709.19
2023-01-08T08:13:11.556Z,99707.65
2023-01-08T08:15:41.324Z,99706.64
2023-01-08T08:18:10.234Z,99708.39
2023-01-08T08:20:38.946Z,99709.31
2023-01-08T08:23:14.257Z,99706.30
2023-01-08T08:25:43.251Z,99703.52
2023-01-08T08:28:12.971Z,99705.23
2023-01-08T08:30:42.625Z,99703.10
2023-01-08T08:33:11.520Z,99695.90
2023-01-08T08:35:40.969Z,99687.15
2023-01-08T08:38:09.527Z,99686.30
2023-01-08T08:40:37.867Z,99686.89
2023-01-08T08:43:06.185Z,99683.76
2023-01-08T08:45:34.558Z,99675.30
2023-01-08T08:48:06.092Z,99665.98
2023-01-08T08:50:35.183Z,99658.48
2023-01-08T08:53:06.041Z,99661.06
2023-01-08T08:55:34.758Z,99680.55
2023-01-08T08:58:13.076Z,99676.08
2023-01-08T09:00:43.524Z,99664.89
2023-01-08T09:03:16.386Z,99669.44
2023-01-08T09:05:45.348Z,99673.91
2023-01-08T09:08:13.827Z,99665.81
2023-01-08T09:10:44.838Z,99671.37
2023-01-08T09:13:13.229Z,99671.50
2023-01-08T09:15:41.639Z,99667.70
2023-01-08T09:18:10.619Z,99673.33
2023-01-08T09:20:39.036Z,99671.98
2023-01-08T09:23:07.411Z,99664.45
2023-01-08T09:25:35.776Z,99666.38
2023-01-08T09:28:12.161Z,99670.80
2023-01-08T09:30:40.940Z,99678.14
2023-01-08T09:33:10.372Z,99677.63
2023-01-08T09:35:38.742Z,99679.70
2023-01-08T09:38:07.061Z,99683.86
2023-01-08T09:40:50.097Z,99673.25
2023-01-08T09:43:21.823Z,99675.50
2023-01-08T09:45:57.643Z,99668.88
2023-01-08T09:48:31.208Z,99665.86
2023-01-08T09:50:59.581Z,99660.30
2023-01-08T09:53:28.497Z,99653.93
2023-01-08T09:56:11.092Z,99652.23
2023-01-08T09:58:52.730Z,99644.30
2023-01-08T10:01:26.758Z,99636.39
2023-01-08T10:04:14.549Z,99632.04
2023-01-08T10:07:10.379Z,99632.66
2023-01-08T10:09:40.458Z,99639.08
2023-01-08T10:12:12.567Z,99644.98
2023-01-08T10:14:49.827Z,99642.88
2023-01-08T10:17:30.766Z,99633.71
2023-01-08T10:19:59.106Z,99622.88
2023-01-08T10:22:33.968Z,99616.52
2023-01-08T10:25:16.579Z,99615.43
2023-01-08T10:27:58.931Z,99613.41
2023-01-08T10:30:32.999Z,99610.61
2023-01-08T10:33:12.774Z,99607.70
2023-01-08T10:35:43.130Z,99603.79
2023-01-08T10:38:33.677Z,99601.48
2023-01-08T10:41:09.066Z,99603.06
2023-01-08T10:44:01.818Z,99601.98
2023-01-08T10:46:42.254Z,99592.15
2023-01-08T10:49:39.367Z,99595.34
2023-01-08T10:52:36.417Z,99599.42
2023-01-08T10:55:27.331Z,99598.55
2023-01-08T10:58:02.501Z,99600.73
2023-01-08T11:00:33.502Z,99594.20
2023-01-08T11:03:06.283Z,99591.75
2023-01-08T11:05:38.443Z,99590.77
2023-01-08T11:08:18.483Z,99584.02
2023-01-08T11:10:59.747Z,99579.64
2023-01-08T11:13:29.874Z,99568.84
2023-01-08T11:16:11.002Z,99564.33
2023-01-08T11:18:49.108Z,99563.22
2023-01-08T11:21:32.694Z,99561.23
2023-01-08T11:24:18.082Z,99553.86
2023-01-08T11:26:53.336Z,99558.86
2023-01-08T11:29:31.253Z,99563.41
2023-01-08T11:32:29.170Z,99557.60
2023-01-08T11:35:04.464Z,99556.17
2023-01-08T11:37:40.313Z,99558.54
2023-01-08T11:40:41.900Z,99558.88
2023-01-08T11:43:33.859Z,99561.73
2023-01-08T11:46:42.889Z,99561.92
2023-01-08T11:49:40.261Z,99565.68
2023-01-08T11:52:32.760Z,99559.48
2023-01-08T11:55:24.391Z,99549.33
2023-01-08T11:58:29.783Z,99548.41
2023-01-08T12:01:41.323Z,99545.73
2023-01-08T12:04:09.733Z,99548.86
2023-01-08T12:06:55.254Z,99544.31
2023-01-08T12:09:42.644Z,99551.81
2023-01-08T12:12:32.978Z,99557.90
2023-01-08T12:15:29.993Z,99554.61
2023-01-08T12:18:20.019Z,99554.73
2023-01-08T12:21:23.252Z,99560.48
2023-01-08T12:24:17.905Z,99553.89
2023-01-08T12:27:54.707Z,99552.22
2023-01-08T12:30:31.336Z,99559.40
2023-01-08T12:33:20.290Z,99539.11
2023-01-08T12:35:54.437Z,99537.18
2023-01-08T12:38:36.064Z,99529.42
2023-01-08T12:41:11.398Z,99533.08
2023-01-08T12:43:59.294Z,99538.17
2023-01-08T12:46:33.581Z,99528.54
2023-01-08T12:49:05.555Z,99532.02
2023-01-08T12:52:16.126Z,99529.48
2023-01-08T12:55:05.035Z,99535.27
2023-01-08T12:57:57.184Z,99530.91
2023-01-08T13:00:39.081Z,99529.38
2023-01-08T13:03:17.468Z,99524.29
2023-01-08T13:05:45.792Z,99522.16
2023-01-08T13:08:35.984Z,99514.43
2023-01-08T13:11:05.739Z,99512.92
2023-01-08T13:13:44.188Z,99518.39
2023-01-08T13:16:14.262Z,99515.63
2023-01-08T13:18:54.603Z,99513.02
2023-01-08T13:21:51.815Z,99505.76
2023-01-08T13:24:37.201Z,99494.45
2023-01-08T13:27:14.561Z,99497.46
2023-01-08T13:29:49.092Z,99503.13
2023-01-08T13:32:43.889Z,99505.90
2023-01-08T13:35:15.019Z,99498.86
2023-01-08T13:37:48.284Z,99492.82
2023-01-08T13:40:47.306Z,99493.26
2023-01-08T13:43:40.132Z,99481.16
2023-01-08T13:46:19.285Z,99464.81
2023-01-08T13:48:55.096Z,99458.83
2023-01-08T13:51:38.605Z,99457.29
2023-01-08T13:54:12.929Z,99459.27
2023-01-08T13:56:44.486Z,99458.91
2023-01-08T13:59:31.359Z,99468.80
2023-01-08T14:02:01.464Z,99467.21
2023-01-08T14:04:30.304Z,99454.20
2023-01-08T14:07:14.735Z,99447.75
2023-01-08T14:09:43.271Z,99445.81
2023-01-08T14:12:17.358Z,99445.17
2023-01-08T14:14:52.171Z,99441.77
2023-01-08T14:17:25.755Z,99441.36
2023-01-08T14:19:54.363Z,99446.21
2023-01-08T14:22:32.968Z,99445.70
2023-01-08T14:25:06.240Z,99443.46
2023-01-08T14:27:35.309Z,99438.55
2023-01-08T14:30:16.760Z,99446.61
2023-01-08T14:32:45.484Z,99453.15
2023-01-08T14:35:20.927Z,99454.08
2023-01-08T14:37:49.297Z,99454.20
2023-01-08T14:40:30.235Z,99458.67
2023-01-08T14:43:06.576Z,99464.01
2023-01-08T14:45:37.302Z,99468.34
2023-01-08T14:48:25.692Z,99471.17
2023-01-08T14:51:07.759Z,99468.20
2023-01-08T14:53:43.143Z,99467.90
2023-01-08T14:56:17.456Z,99461.88
2023-01-08T14:58:47.008Z,99458.35
2023-01-08T15:01:20.075Z,99465.21
2023-01-08T15:03:50.994Z,99464.01
2023-01-08T15:06:33.183Z,99454.39
2023-01-08T15:09:01.608Z,99444.74
2023-01-08T15:11:49.969Z,99449.75
2023-01-08T15:14:26.409Z,99444.58
2023-01-08T15:16:59.511Z,99444.06
2023-01-08T15:19:30.912Z,99443.92
2023-01-08T15:22:01.844Z,99440.12
2023-01-08T15:24:34.516Z,99441.27
2023-01-08T15:27:10.191Z,99440.73
2023-01-08T15:29:47.650Z,99438.45
2023-01-08T15:32:16.035Z,99429.86
2023-01-08T15:34:46.130Z,99430.99
2023-01-08T15:37:15.805Z,99424.53
2023-01-08T15:39:44.246Z,99412.92
2023-01-08T15:42:48.222Z,99407.96
2023-01-08T15:45:29.744Z,99397.41
2023-01-08T15:47:58.511Z,99396.15
2023-01-08T15:50:28.425Z,99395.83
2023-01-08T15:52:57.552Z,99395.27
2023-01-08T15:55:26.025Z,99399.30
2023-01-08T15:57:57.544Z,99406.02
2023-01-08T16:00:26.884Z,99416.21
2023-01-08T16:02:55.935Z,99423.12
2023-01-08T16:06:28.845Z,99416.15
2023-01-08T16:09:00.304Z,99417.02
2023-01-08T16:21:19.574Z,99427.91
2023-01-08T16:23:47.940Z,99426.45
2023-01-08T16:26:16.607Z,99436.38
2023-01-08T16:28:44.930Z,99442.29
2023-01-08T16:31:13.397Z,99441.22
2023-01-08T16:33:41.741Z,99438.73
2023-01-08T16:36:10.701Z,99440.61
2023-01-08T16:38:39.052Z,99439.41
2023-01-08T16:41:07.548Z,99440.11
2023-01-08T16:43:41.197Z,99435.85
2023-01-08T16:46:13.827Z,99434.98
2023-01-08T16:48:42.999Z,99438.92
2023-01-08T16:51:11.784Z,99439.85
2023-01-08T16:53:40.575Z,99439.75
2023-01-08T16:56:09.823Z,99426.51
2023-01-08T16:58:38.239Z,99419.61
2023-01-08T17:01:11.279Z,99419.59
2023-01-08T17:03:39.820Z,99415.38
2023-01-08T17:06:11.040Z,99405.73
2023-01-08T17:08:41.447Z,99403.63
2023-01-08T17:11:13.167Z,99403.88
2023-01-08T17:13:42.558Z,99407.67
2023-01-08T17:16:15.022Z,99407.23
2023-01-08T17:18:44.253Z,99405.16
2023-01-08T17:21:14.732Z,99404.07
2023-01-08T17:23:43.127Z,99400.68
2023-01-08T17:26:15.358Z,99394.48
2023-01-08T17:28:45.252Z,99405.67
2023-01-08T17:31:20.699Z,99412.59
2023-01-08T17:33:50.567Z,99411.83
2023-01-08T17:36:23.267Z,99401.15
2023-01-08T17:38:54.531Z,99395.73
2023-01-08T17:41:41.924Z,99390.83
2023-01-08T17:44:12.484Z,99382.30
2023-01-08T17:46:45.125Z,99380.46
2023-01-08T17:49:16.515Z,99382.13
2023-01-08T17:51:46.043Z,99388.73
2023-01-08T17:54:17.182Z,99388.67
2023-01-08T17:56:45.866Z,99388.50
2023-01-08T17:59:16.349Z,99386.05
2023-01-08T18:01:45.789Z,99381.62
2023-01-08T18:04:15.366Z,99381.41
2023-01-08T18:06:44.490Z,99380.06
2023-01-08T18:09:13.111Z,99379.72
2023-01-08T18:11:43.066Z,99379.13
2023-01-08T18:14:13.744Z,99384.01
2023-01-08T18:16:45.579Z,99384.52
2023-01-08T18:19:16.862Z,99388.38
2023-01-08T18:21:45.773Z,99393.52
2023-01-08T18:24:15.516Z,99395.57
2023-01-08T18:26:46.467Z,99401.29
2023-01-08T18:29:14.965Z,99408.89
2023-01-08T18:31:46.054Z,99415.79
2023-01-08T18:34:17.259Z,99413.40
2023-01-08T18:36:45.821Z,99408.33
2023-01-08T18:39:14.593Z,99402.73
2023-01-08T18:42:01.899Z,99399.42
2023-01-08T18:44:30.248Z,99389.89
2023-01-08T18:46:58.579Z,99382.27
2023-01-08T18:49:27.648Z,99379.62
2023-01-08T18:51:56.043Z,99374.87
2023-01-08T18:54:24.440Z,99369.56
2023-01-08T18:56:52.764Z,99368.26
2023-01-08T18:59:21.220Z,99362.36
2023-01-08T19:01:49.665Z,99362.42
2023-01-08T19:04:20.974Z,99368.13
2023-01-08T19:06:49.317Z,99376.02
2023-01-08T19:09:18.000Z,99384.30
2023-01-08T19:11:47.056Z,99384.04
2023-01-08T19:14:15.625Z,99368.80
2023-01-08T19:16:49.529Z,99356.75
2023-01-08T19:19:19.828Z,99356.06
2023-01-08T19:21:48.550Z,99354.30
2023-01-08T19:24:17.419Z,99349.46
2023-01-08T19:26:45.750Z,99348.14
2023-01-08T19:29:14.125Z,99344.64
2023-01-08T19:31:42.665Z,99338.45
2023-01-08T19:34:11.309Z,99337.81
2023-01-08T19:36:39.963Z,99334.35
2023-01-08T19:39:11.232Z,99330.71
2023-01-08T19:41:58.367Z,99323.74
2023-01-08T19:44:26.827Z,99314.02
2023-01-08T19:46:55.200Z,99312.38
2023-01-08T19:49:24.287Z,99314.36
2023-01-08T19:51:52.715Z,99309.95
2023-01-08T19:54:23.750Z,99311.77
2023-01-08T19:56:53.697Z,99302.49
2023-01-08T19:59:22.242Z,99297.40
2023-01-08T20:01:50.736Z,99289.74
2023-01-08T20:04:19.299Z,99284.05
2023-01-08T20:06:48.283Z,99278.23
2023-01-08T20:09:16.560Z,99275.71
2023-01-08T20:11:44.876Z,99264.27
2023-01-08T20:14:13.213Z,99261.91
2023-01-08T20:16:41.608Z,99257.72
2023-01-08T20:19:10.058Z,99251.04
2023-01-08T20:21:38.442Z,99248.00
2023-01-08T20:24:11.682Z,99246.10
2023-01-08T20:26:43.175Z,99241.52
2023-01-08T20:29:13.591Z,99235.48
2023-01-08T20:31:44.284Z,99218.09
2023-01-08T20:34:16.407Z,99199.36
2023-01-08T20:36:45.662Z,99196.80
2023-01-08T20:39:16.907Z,99195.02
2023-01-08T20:41:55.274Z,99189.67
2023-01-08T20:44:33.191Z,99191.98
2023-01-08T20:47:02.523Z,99190.89
2023-01-08T20:49:31.215Z,99186.80
2023-01-08T20:52:00.778Z,99185.68
2023-01-08T20:54:30.271Z,99188.09
2023-01-08T20:57:00.334Z,99186.36
2023-01-08T20:59:29.069Z,99187.52
2023-01-08T21:01:57.809Z,99184.58
2023-01-08T21:04:26.304Z,99181.87
2023-01-08T21:06:54.722Z,99181.58
2023-01-08T21:09:23.100Z,99183.53
2023-01-08T21:11:51.431Z,99177.36
2023-01-08T21:14:19.785Z,99172.70
2023-01-08T21:16:48.289Z,99172.17
2023-01-08T21:19:16.598Z,99170.34
2023-01-08T21:21:45.949Z,99173.45
2023-01-08T21:24:15.109Z,99179.42
2023-01-08T21:26:45.685Z,99181.41
2023-01-08T21:29:16.905Z,99182.00
2023-01-08T21:31:45.545Z,99181.70
2023-01-08T21:34:13.986Z,99181.11
2023-01-08T21:36:42.400Z,99183.75
2023-01-08T21:39:11.655Z,99183.98
2023-01-08T21:41:58.781Z,99181.73
2023-01-08T21:44:45.961Z,99170.92
2023-01-08T21:47:17.716Z,99166.85
2023-01-08T21:49:46.727Z,99163.95
2023-01-08T21:52:33.609Z,99169.95
2023-01-08T21:55:02.510Z,99164.59
2023-01-08T21:57:30.945Z,99159.29
2023-01-08T21:59:59.317Z,99155.69
2023-01-08T22:02:27.791Z,99156.12
2023-01-08T22:04:56.666Z,99147.23
2023-01-08T22:07:26.228Z,99143.18
2023-01-08T22:09:54.933Z,99141.44
2023-01-08T22:12:25.540Z,99133.52
2023-01-08T22:14:55.592Z,99131.34
2023-01-08T22:17:26.388Z,99131.46
2023-01-08T22:19:54.717Z,99125.14
2023-01-08T22:22:23.105Z,99124.10
2023-01-08T22:24:52.407Z,99120.16
2023-01-08T22:27:22.340Z,99113.80
2023-01-08T22:29:50.776Z,99116.05
2023-01-08T22:32:19.105Z,99112.26
2023-01-08T22:34:47.439Z,99110.78
2023-01-08T22:37:18.421Z,99118.66
2023-01-08T22:39:46.790Z,99125.36
2023-01-08T22:42:16.667Z,99132.00
2023-01-08T22:44:44.956Z,99125.88
2023-01-08T22:47:13.286Z,99118.39
2023-01-08T22:49:41.650Z,99115.57
2023-01-08T22:52:10.931Z,99112.56
2023-01-08T22:54:39.703Z,99111.46
2023-01-08T22:57:08.614Z,99106.41
2023-01-08T22:59:37.319Z,99109.45
2023-01-08T23:02:05.628Z,99106.02
2023-01-08T23:04:33.998Z,99103.94
2023-01-08T23:07:02.269Z,99091.67
2023-01-08T23:09:30.612Z,99083.60
2023-01-08T23:11:58.926Z,99078.52
2023-01-08T23:14:27.253Z,99075.10
2023-01-08T23:16:55.540Z,99076.63
2023-01-08T23:19:23.929Z,99073.40
2023-01-08T23:21:52.368Z,99068.20
2023-01-08T23:24:20.708Z,99062.48
2023-01-08T23:26:49.028Z,99060.22
2023-01-08T23:29:17.480Z,99059.66
2023-01-08T23:31:45.848Z,99058.34
2023-01-08T23:34:14.191Z,99047.21
2023-01-08T23:36:44.384Z,99040.95
2023-01-08T23:39:12.800Z,99031.59
2023-01-08T23:41:41.216Z,99033.09
2023-01-08T23:44:15.616Z,99030.35
2023-01-08T23:46:43.983Z,99027.67
2023-01-08T23:49:12.351Z,99024.30
2023-01-08T23:51:42.391Z,99021.77
2023-01-08T23:54:12.334Z,99025.61
2023-01-08T23:56:41.472Z,99026.01
2023-01-08T23:59:10.190Z,99024.67
